sensor_id;sensor_type;location;lat;lon;timestamp;temperature;humidity
45868;DHT22;31582;45.490;7.860;2022-08-21T00:01:34;24.10;42.50
45868;DHT22;31582;45.490;7.860;2022-08-21T00:04:07;24.10;42.50
45868;DHT22;31582;45.490;7.860;2022-08-21T00:06:35;24.10;42.10
45868;DHT22;31582;45.490;7.860;2022-08-21T00:09:03;24.00;42.20
45868;DHT22;31582;45.490;7.860;2022-08-21T00:11:32;24.10;42.40
45868;DHT22;31582;45.490;7.860;2022-08-21T00:14:00;24.00;41.90
45868;DHT22;31582;45.490;7.860;2022-08-21T00:16:27;24.10;41.80
45868;DHT22;31582;45.490;7.860;2022-08-21T00:18:54;24.10;41.60
45868;DHT22;31582;45.490;7.860;2022-08-21T00:21:20;24.10;41.30
45868;DHT22;31582;45.490;7.860;2022-08-21T00:23:49;24.20;41.30
45868;DHT22;31582;45.490;7.860;2022-08-21T00:26:16;24.20;41.10
45868;DHT22;31582;45.490;7.860;2022-08-21T00:28:42;24.20;40.80
45868;DHT22;31582;45.490;7.860;2022-08-21T00:31:12;24.30;40.50
45868;DHT22;31582;45.490;7.860;2022-08-21T00:33:39;24.40;40.70
45868;DHT22;31582;45.490;7.860;2022-08-21T00:36:06;24.40;40.60
45868;DHT22;31582;45.490;7.860;2022-08-21T00:38:33;24.40;40.40
45868;DHT22;31582;45.490;7.860;2022-08-21T00:41:01;24.40;40.60
45868;DHT22;31582;45.490;7.860;2022-08-21T00:43:49;24.40;40.70
45868;DHT22;31582;45.490;7.860;2022-08-21T00:46:16;24.40;40.20
45868;DHT22;31582;45.490;7.860;2022-08-21T00:48:43;24.40;40.20
45868;DHT22;31582;45.490;7.860;2022-08-21T00:51:11;24.40;40.30
45868;DHT22;31582;45.490;7.860;2022-08-21T00:53:43;24.40;40.60
45868;DHT22;31582;45.490;7.860;2022-08-21T00:56:17;24.40;40.50
45868;DHT22;31582;45.490;7.860;2022-08-21T00:58:45;24.40;40.30
45868;DHT22;31582;45.490;7.860;2022-08-21T01:01:14;24.50;40.00
45868;DHT22;31582;45.490;7.860;2022-08-21T01:03:45;24.50;39.60
45868;DHT22;31582;45.490;7.860;2022-08-21T01:06:12;24.50;39.90
45868;DHT22;31582;45.490;7.860;2022-08-21T01:08:39;24.50;39.70
45868;DHT22;31582;45.490;7.860;2022-08-21T01:11:13;24.50;39.80
45868;DHT22;31582;45.490;7.860;2022-08-21T01:13:40;24.50;39.90
45868;DHT22;31582;45.490;7.860;2022-08-21T01:16:12;24.50;39.90
45868;DHT22;31582;45.490;7.860;2022-08-21T01:18:40;24.50;39.90
45868;DHT22;31582;45.490;7.860;2022-08-21T01:21:12;24.40;40.10
45868;DHT22;31582;45.490;7.860;2022-08-21T01:23:40;24.50;40.10
45868;DHT22;31582;45.490;7.860;2022-08-21T01:26:08;24.40;40.00
45868;DHT22;31582;45.490;7.860;2022-08-21T01:28:37;24.40;39.80
45868;DHT22;31582;45.490;7.860;2022-08-21T01:31:05;24.30;40.20
45868;DHT22;31582;45.490;7.860;2022-08-21T01:33:33;24.30;40.00
45868;DHT22;31582;45.490;7.860;2022-08-21T01:36:00;24.30;40.00
45868;DHT22;31582;45.490;7.860;2022-08-21T01:38:27;24.30;40.10
45868;DHT22;31582;45.490;7.860;2022-08-21T01:40:56;24.20;40.30
45868;DHT22;31582;45.490;7.860;2022-08-21T01:43:23;24.20;40.30
45868;DHT22;31582;45.490;7.860;2022-08-21T01:46:04;24.20;40.50
45868;DHT22;31582;45.490;7.860;2022-08-21T01:48:31;24.10;40.40
45868;DHT22;31582;45.490;7.860;2022-08-21T01:50:58;24.10;40.60
45868;DHT22;31582;45.490;7.860;2022-08-21T01:53:25;24.00;40.70
45868;DHT22;31582;45.490;7.860;2022-08-21T01:55:59;24.00;40.70
45868;DHT22;31582;45.490;7.860;2022-08-21T01:58:26;24.00;41.00
45868;DHT22;31582;45.490;7.860;2022-08-21T02:03:54;24.00;41.00
45868;DHT22;31582;45.490;7.860;2022-08-21T02:06:21;23.90;41.10
45868;DHT22;31582;45.490;7.860;2022-08-21T02:08:47;23.90;40.90
45868;DHT22;31582;45.490;7.860;2022-08-21T02:11:14;23.90;41.20
45868;DHT22;31582;45.490;7.860;2022-08-21T02:13:41;23.90;41.20
45868;DHT22;31582;45.490;7.860;2022-08-21T02:16:08;23.80;41.50
45868;DHT22;31582;45.490;7.860;2022-08-21T02:18:35;23.80;41.50
45868;DHT22;31582;45.490;7.860;2022-08-21T02:21:03;23.80;41.10
45868;DHT22;31582;45.490;7.860;2022-08-21T02:23:30;23.80;41.30
45868;DHT22;31582;45.490;7.860;2022-08-21T02:25:58;23.70;41.70
45868;DHT22;31582;45.490;7.860;2022-08-21T02:28:25;23.70;41.60
45868;DHT22;31582;45.490;7.860;2022-08-21T02:30:53;23.70;41.50
45868;DHT22;31582;45.490;7.860;2022-08-21T02:33:21;23.60;41.70
45868;DHT22;31582;45.490;7.860;2022-08-21T02:35:48;23.60;42.00
45868;DHT22;31582;45.490;7.860;2022-08-21T02:38:17;23.60;41.90
45868;DHT22;31582;45.490;7.860;2022-08-21T02:40:45;23.50;42.20
45868;DHT22;31582;45.490;7.860;2022-08-21T02:43:14;23.60;41.80
45868;DHT22;31582;45.490;7.860;2022-08-21T02:45:42;23.60;42.00
45868;DHT22;31582;45.490;7.860;2022-08-21T02:48:11;23.60;42.00
45868;DHT22;31582;45.490;7.860;2022-08-21T02:50:40;23.50;42.50
45868;DHT22;31582;45.490;7.860;2022-08-21T02:53:08;23.50;41.90
45868;DHT22;31582;45.490;7.860;2022-08-21T02:55:35;23.50;41.80
45868;DHT22;31582;45.490;7.860;2022-08-21T02:58:03;23.50;41.90
45868;DHT22;31582;45.490;7.860;2022-08-21T03:00:31;23.60;42.00
45868;DHT22;31582;45.490;7.860;2022-08-21T03:02:59;23.50;42.00
45868;DHT22;31582;45.490;7.860;2022-08-21T03:05:26;23.50;41.80
45868;DHT22;31582;45.490;7.860;2022-08-21T03:07:54;23.50;41.80
45868;DHT22;31582;45.490;7.860;2022-08-21T03:10:21;23.60;41.30
45868;DHT22;31582;45.490;7.860;2022-08-21T03:12:48;23.60;41.60
45868;DHT22;31582;45.490;7.860;2022-08-21T03:15:16;23.60;41.60
45868;DHT22;31582;45.490;7.860;2022-08-21T03:17:44;23.50;41.50
45868;DHT22;31582;45.490;7.860;2022-08-21T03:20:12;23.50;41.80
45868;DHT22;31582;45.490;7.860;2022-08-21T03:22:39;23.40;41.70
45868;DHT22;31582;45.490;7.860;2022-08-21T03:25:06;23.50;41.80
45868;DHT22;31582;45.490;7.860;2022-08-21T03:27:36;23.40;41.90
45868;DHT22;31582;45.490;7.860;2022-08-21T03:30:06;23.40;42.20
45868;DHT22;31582;45.490;7.860;2022-08-21T03:32:34;23.40;41.90
45868;DHT22;31582;45.490;7.860;2022-08-21T03:35:02;23.40;42.20
45868;DHT22;31582;45.490;7.860;2022-08-21T03:37:29;23.30;42.30
45868;DHT22;31582;45.490;7.860;2022-08-21T03:39:56;23.30;42.40
45868;DHT22;31582;45.490;7.860;2022-08-21T03:42:24;23.20;42.50
45868;DHT22;31582;45.490;7.860;2022-08-21T03:44:51;23.10;42.70
45868;DHT22;31582;45.490;7.860;2022-08-21T03:47:18;23.10;43.60
45868;DHT22;31582;45.490;7.860;2022-08-21T03:49:44;23.10;42.80
45868;DHT22;31582;45.490;7.860;2022-08-21T03:52:11;23.00;42.70
45868;DHT22;31582;45.490;7.860;2022-08-21T03:54:38;23.00;43.10
45868;DHT22;31582;45.490;7.860;2022-08-21T03:57:07;23.00;43.20
45868;DHT22;31582;45.490;7.860;2022-08-21T03:59:35;22.90;43.10
45868;DHT22;31582;45.490;7.860;2022-08-21T04:02:03;22.90;43.30
45868;DHT22;31582;45.490;7.860;2022-08-21T04:04:31;22.90;43.10
45868;DHT22;31582;45.490;7.860;2022-08-21T04:06:58;22.90;43.00
45868;DHT22;31582;45.490;7.860;2022-08-21T04:09:25;22.90;43.10
45868;DHT22;31582;45.490;7.860;2022-08-21T04:11:52;22.90;42.90
45868;DHT22;31582;45.490;7.860;2022-08-21T04:14:19;22.80;43.10
45868;DHT22;31582;45.490;7.860;2022-08-21T04:16:46;22.80;42.90
45868;DHT22;31582;45.490;7.860;2022-08-21T04:19:13;22.80;43.10
45868;DHT22;31582;45.490;7.860;2022-08-21T04:21:40;22.80;43.30
45868;DHT22;31582;45.490;7.860;2022-08-21T04:24:10;22.80;43.20
45868;DHT22;31582;45.490;7.860;2022-08-21T04:26:37;22.80;43.20
45868;DHT22;31582;45.490;7.860;2022-08-21T04:29:04;22.80;43.20
45868;DHT22;31582;45.490;7.860;2022-08-21T04:31:36;22.80;43.30
45868;DHT22;31582;45.490;7.860;2022-08-21T04:34:03;22.80;43.40
45868;DHT22;31582;45.490;7.860;2022-08-21T04:36:31;22.70;43.60
45868;DHT22;31582;45.490;7.860;2022-08-21T04:38:58;22.70;43.70
45868;DHT22;31582;45.490;7.860;2022-08-21T04:41:28;22.70;43.80
45868;DHT22;31582;45.490;7.860;2022-08-21T04:43:55;22.60;43.60
45868;DHT22;31582;45.490;7.860;2022-08-21T04:46:22;22.60;43.70
45868;DHT22;31582;45.490;7.860;2022-08-21T04:48:49;22.60;44.10
45868;DHT22;31582;45.490;7.860;2022-08-21T04:51:17;22.50;44.50
45868;DHT22;31582;45.490;7.860;2022-08-21T04:53:47;22.50;44.60
45868;DHT22;31582;45.490;7.860;2022-08-21T04:58:46;22.50;44.30
45868;DHT22;31582;45.490;7.860;2022-08-21T05:01:15;22.50;44.40
45868;DHT22;31582;45.490;7.860;2022-08-21T05:03:43;22.50;44.10
45868;DHT22;31582;45.490;7.860;2022-08-21T05:06:11;22.50;44.00
45868;DHT22;31582;45.490;7.860;2022-08-21T05:08:39;22.50;43.60
45868;DHT22;31582;45.490;7.860;2022-08-21T05:11:07;22.60;43.40
45868;DHT22;31582;45.490;7.860;2022-08-21T05:13:34;22.60;43.80
45868;DHT22;31582;45.490;7.860;2022-08-21T05:16:01;22.60;43.20
45868;DHT22;31582;45.490;7.860;2022-08-21T05:18:28;22.60;43.60
45868;DHT22;31582;45.490;7.860;2022-08-21T05:20:55;22.60;43.40
45868;DHT22;31582;45.490;7.860;2022-08-21T05:23:22;22.60;43.40
45868;DHT22;31582;45.490;7.860;2022-08-21T05:25:49;22.50;43.80
45868;DHT22;31582;45.490;7.860;2022-08-21T05:28:15;22.60;44.10
45868;DHT22;31582;45.490;7.860;2022-08-21T05:30:42;22.50;44.00
45868;DHT22;31582;45.490;7.860;2022-08-21T05:33:09;22.60;43.90
45868;DHT22;31582;45.490;7.860;2022-08-21T05:35:37;22.60;44.10
45868;DHT22;31582;45.490;7.860;2022-08-21T05:38:04;22.50;44.00
45868;DHT22;31582;45.490;7.860;2022-08-21T05:40:42;22.50;43.80
45868;DHT22;31582;45.490;7.860;2022-08-21T05:43:09;22.60;44.50
45868;DHT22;31582;45.490;7.860;2022-08-21T05:45:36;22.60;43.80
45868;DHT22;31582;45.490;7.860;2022-08-21T05:48:19;22.60;43.80
45868;DHT22;31582;45.490;7.860;2022-08-21T05:50:47;22.70;43.70
45868;DHT22;31582;45.490;7.860;2022-08-21T05:53:14;22.70;43.70
45868;DHT22;31582;45.490;7.860;2022-08-21T05:55:41;22.70;43.50
45868;DHT22;31582;45.490;7.860;2022-08-21T05:58:12;22.70;43.50
45868;DHT22;31582;45.490;7.860;2022-08-21T06:00:39;22.80;44.00
45868;DHT22;31582;45.490;7.860;2022-08-21T06:03:10;22.80;43.80
45868;DHT22;31582;45.490;7.860;2022-08-21T06:05:37;22.90;43.30
45868;DHT22;31582;45.490;7.860;2022-08-21T06:08:04;23.00;42.90
45868;DHT22;31582;45.490;7.860;2022-08-21T06:10:31;23.00;43.00
45868;DHT22;31582;45.490;7.860;2022-08-21T06:12:57;23.00;43.10
45868;DHT22;31582;45.490;7.860;2022-08-21T06:15:25;23.00;43.10
45868;DHT22;31582;45.490;7.860;2022-08-21T06:17:52;23.10;43.30
45868;DHT22;31582;45.490;7.860;2022-08-21T06:20:19;23.20;42.90
45868;DHT22;31582;45.490;7.860;2022-08-21T06:22:46;23.20;42.60
45868;DHT22;31582;45.490;7.860;2022-08-21T06:25:12;23.30;42.00
45868;DHT22;31582;45.490;7.860;2022-08-21T06:27:39;23.40;42.40
45868;DHT22;31582;45.490;7.860;2022-08-21T06:30:06;23.40;42.30
45868;DHT22;31582;45.490;7.860;2022-08-21T06:32:34;23.40;42.20
45868;DHT22;31582;45.490;7.860;2022-08-21T06:35:02;23.60;41.70
45868;DHT22;31582;45.490;7.860;2022-08-21T06:37:29;23.60;41.10
45868;DHT22;31582;45.490;7.860;2022-08-21T06:39:56;23.70;41.90
45868;DHT22;31582;45.490;7.860;2022-08-21T06:42:24;23.70;41.00
45868;DHT22;31582;45.490;7.860;2022-08-21T06:44:53;23.70;41.60
45868;DHT22;31582;45.490;7.860;2022-08-21T06:47:20;23.80;41.20
45868;DHT22;31582;45.490;7.860;2022-08-21T06:49:47;23.90;40.30
45868;DHT22;31582;45.490;7.860;2022-08-21T06:52:15;23.90;40.80
45868;DHT22;31582;45.490;7.860;2022-08-21T06:54:41;24.00;40.70
45868;DHT22;31582;45.490;7.860;2022-08-21T06:57:09;24.00;41.00
45868;DHT22;31582;45.490;7.860;2022-08-21T06:59:36;24.10;40.90
45868;DHT22;31582;45.490;7.860;2022-08-21T07:02:03;24.10;40.20
45868;DHT22;31582;45.490;7.860;2022-08-21T07:04:30;24.20;41.10
45868;DHT22;31582;45.490;7.860;2022-08-21T07:06:57;24.30;39.50
45868;DHT22;31582;45.490;7.860;2022-08-21T07:09:23;24.40;40.50
45868;DHT22;31582;45.490;7.860;2022-08-21T07:11:51;24.40;40.60
45868;DHT22;31582;45.490;7.860;2022-08-21T07:14:18;24.50;40.10
45868;DHT22;31582;45.490;7.860;2022-08-21T07:16:46;24.60;40.60
45868;DHT22;31582;45.490;7.860;2022-08-21T07:19:13;24.70;40.60
45868;DHT22;31582;45.490;7.860;2022-08-21T07:21:40;24.80;39.80
45868;DHT22;31582;45.490;7.860;2022-08-21T07:24:06;24.90;39.50
45868;DHT22;31582;45.490;7.860;2022-08-21T07:26:33;25.00;39.10
45868;DHT22;31582;45.490;7.860;2022-08-21T07:29:00;25.00;39.80
45868;DHT22;31582;45.490;7.860;2022-08-21T07:31:27;25.10;39.50
45868;DHT22;31582;45.490;7.860;2022-08-21T07:33:54;25.20;38.50
45868;DHT22;31582;45.490;7.860;2022-08-21T07:36:21;25.30;39.10
45868;DHT22;31582;45.490;7.860;2022-08-21T07:38:48;25.40;38.60
45868;DHT22;31582;45.490;7.860;2022-08-21T07:41:20;25.50;38.00
45868;DHT22;31582;45.490;7.860;2022-08-21T07:43:47;25.50;38.90
45868;DHT22;31582;45.490;7.860;2022-08-21T07:46:18;25.50;39.40
45868;DHT22;31582;45.490;7.860;2022-08-21T07:48:46;25.60;39.10
45868;DHT22;31582;45.490;7.860;2022-08-21T07:51:14;25.60;38.80
45868;DHT22;31582;45.490;7.860;2022-08-21T07:53:41;25.60;39.30
45868;DHT22;31582;45.490;7.860;2022-08-21T07:56:08;25.70;38.30
45868;DHT22;31582;45.490;7.860;2022-08-21T07:58:37;25.90;38.60
45868;DHT22;31582;45.490;7.860;2022-08-21T08:01:05;26.00;38.40
45868;DHT22;31582;45.490;7.860;2022-08-21T08:03:32;26.20;37.90
45868;DHT22;31582;45.490;7.860;2022-08-21T08:05:59;26.40;38.90
45868;DHT22;31582;45.490;7.860;2022-08-21T08:08:27;26.50;38.20
45868;DHT22;31582;45.490;7.860;2022-08-21T08:10:55;26.60;37.60
45868;DHT22;31582;45.490;7.860;2022-08-21T08:13:22;26.80;37.10
45868;DHT22;31582;45.490;7.860;2022-08-21T08:15:49;27.00;36.50
45868;DHT22;31582;45.490;7.860;2022-08-21T08:18:16;27.20;36.10
45868;DHT22;31582;45.490;7.860;2022-08-21T08:20:43;27.40;35.80
45868;DHT22;31582;45.490;7.860;2022-08-21T08:23:10;27.50;35.60
45868;DHT22;31582;45.490;7.860;2022-08-21T08:25:37;27.60;35.50
45868;DHT22;31582;45.490;7.860;2022-08-21T08:28:04;27.70;35.40
45868;DHT22;31582;45.490;7.860;2022-08-21T08:30:43;27.70;35.10
45868;DHT22;31582;45.490;7.860;2022-08-21T08:33:10;28.00;34.20
45868;DHT22;31582;45.490;7.860;2022-08-21T08:35:37;28.00;33.70
45868;DHT22;31582;45.490;7.860;2022-08-21T08:38:05;28.00;34.00
45868;DHT22;31582;45.490;7.860;2022-08-21T08:43:18;28.20;34.10
45868;DHT22;31582;45.490;7.860;2022-08-21T08:45:49;28.30;33.60
45868;DHT22;31582;45.490;7.860;2022-08-21T08:48:25;28.30;33.10
45868;DHT22;31582;45.490;7.860;2022-08-21T08:50:57;28.40;33.40
45868;DHT22;31582;45.490;7.860;2022-08-21T08:53:33;28.50;33.40
45868;DHT22;31582;45.490;7.860;2022-08-21T08:56:03;28.60;33.80
45868;DHT22;31582;45.490;7.860;2022-08-21T08:58:33;28.80;34.10
45868;DHT22;31582;45.490;7.860;2022-08-21T09:01:01;29.00;33.40
45868;DHT22;31582;45.490;7.860;2022-08-21T09:03:33;29.00;33.60
45868;DHT22;31582;45.490;7.860;2022-08-21T09:08:56;29.30;33.60
45868;DHT22;31582;45.490;7.860;2022-08-21T09:11:27;29.60;34.50
45868;DHT22;31582;45.490;7.860;2022-08-21T09:14:01;29.80;32.20
45868;DHT22;31582;45.490;7.860;2022-08-21T09:24:44;30.10;31.50
45868;DHT22;31582;45.490;7.860;2022-08-21T09:27:18;30.00;32.50
45868;DHT22;31582;45.490;7.860;2022-08-21T09:29:46;30.20;33.40
45868;DHT22;31582;45.490;7.860;2022-08-21T09:34:58;30.50;32.90
45868;DHT22;31582;45.490;7.860;2022-08-21T09:37:26;30.50;31.50
45868;DHT22;31582;45.490;7.860;2022-08-21T09:39:52;30.40;32.60
45868;DHT22;31582;45.490;7.860;2022-08-21T09:42:30;30.30;33.60
45868;DHT22;31582;45.490;7.860;2022-08-21T09:45:22;30.50;34.10
45868;DHT22;31582;45.490;7.860;2022-08-21T09:47:47;30.70;34.10
45868;DHT22;31582;45.490;7.860;2022-08-21T09:50:17;30.90;34.10
45868;DHT22;31582;45.490;7.860;2022-08-21T09:52:54;31.10;33.10
45868;DHT22;31582;45.490;7.860;2022-08-21T09:55:37;31.20;32.50
45868;DHT22;31582;45.490;7.860;2022-08-21T09:58:29;31.30;30.90
45868;DHT22;31582;45.490;7.860;2022-08-21T10:00:58;31.40;30.50
45868;DHT22;31582;45.490;7.860;2022-08-21T10:03:25;31.50;30.50
45868;DHT22;31582;45.490;7.860;2022-08-21T10:05:59;31.60;30.70
45868;DHT22;31582;45.490;7.860;2022-08-21T10:08:28;31.70;30.30
45868;DHT22;31582;45.490;7.860;2022-08-21T10:11:01;31.70;30.50
45868;DHT22;31582;45.490;7.860;2022-08-21T10:18:30;31.90;29.80
45868;DHT22;31582;45.490;7.860;2022-08-21T10:21:09;31.90;29.90
45868;DHT22;31582;45.490;7.860;2022-08-21T10:26:31;32.20;30.30
45868;DHT22;31582;45.490;7.860;2022-08-21T10:31:55;32.20;28.20
45868;DHT22;31582;45.490;7.860;2022-08-21T10:35:07;32.20;28.70
45868;DHT22;31582;45.490;7.860;2022-08-21T10:45:20;32.30;27.70
45868;DHT22;31582;45.490;7.860;2022-08-21T10:47:55;32.30;29.70
45868;DHT22;31582;45.490;7.860;2022-08-21T10:50:30;32.40;28.50
45868;DHT22;31582;45.490;7.860;2022-08-21T10:56:17;32.50;29.20
45868;DHT22;31582;45.490;7.860;2022-08-21T11:01:24;32.90;28.00
45868;DHT22;31582;45.490;7.860;2022-08-21T11:04:07;32.90;28.70
45868;DHT22;31582;45.490;7.860;2022-08-21T11:06:36;32.80;29.30
45868;DHT22;31582;45.490;7.860;2022-08-21T11:09:11;32.80;28.70
45868;DHT22;31582;45.490;7.860;2022-08-21T11:11:48;32.90;28.20
45868;DHT22;31582;45.490;7.860;2022-08-21T11:14:39;33.10;29.10
45868;DHT22;31582;45.490;7.860;2022-08-21T11:17:16;33.10;28.80
45868;DHT22;31582;45.490;7.860;2022-08-21T11:24:57;33.60;29.30
45868;DHT22;31582;45.490;7.860;2022-08-21T11:30:08;33.10;28.90
45868;DHT22;31582;45.490;7.860;2022-08-21T11:50:43;33.40;28.70
45868;DHT22;31582;45.490;7.860;2022-08-21T11:53:12;33.50;29.10
45868;DHT22;31582;45.490;7.860;2022-08-21T11:55:42;33.50;27.90
45868;DHT22;31582;45.490;7.860;2022-08-21T11:58:11;33.50;29.20
45868;DHT22;31582;45.490;7.860;2022-08-21T12:00:45;33.50;29.20
45868;DHT22;31582;45.490;7.860;2022-08-21T12:03:14;33.50;29.10
45868;DHT22;31582;45.490;7.860;2022-08-21T12:05:51;33.60;29.00
45868;DHT22;31582;45.490;7.860;2022-08-21T12:08:26;33.80;29.50
45868;DHT22;31582;45.490;7.860;2022-08-21T12:11:02;34.00;28.50
45868;DHT22;31582;45.490;7.860;2022-08-21T12:13:30;34.00;27.90
45868;DHT22;31582;45.490;7.860;2022-08-21T12:16:11;34.00;27.40
45868;DHT22;31582;45.490;7.860;2022-08-21T12:18:39;34.00;28.00
45868;DHT22;31582;45.490;7.860;2022-08-21T12:21:27;34.20;27.80
45868;DHT22;31582;45.490;7.860;2022-08-21T12:24:05;34.40;27.80
45868;DHT22;31582;45.490;7.860;2022-08-21T12:26:50;34.60;28.10
45868;DHT22;31582;45.490;7.860;2022-08-21T12:34:42;34.60;27.80
45868;DHT22;31582;45.490;7.860;2022-08-21T12:37:15;34.50;27.20
45868;DHT22;31582;45.490;7.860;2022-08-21T12:39:44;34.50;27.40
45868;DHT22;31582;45.490;7.860;2022-08-21T12:44:42;34.70;27.80
45868;DHT22;31582;45.490;7.860;2022-08-21T12:50:08;34.60;27.60
45868;DHT22;31582;45.490;7.860;2022-08-21T12:52:38;34.70;28.20
45868;DHT22;31582;45.490;7.860;2022-08-21T12:55:07;34.60;27.70
45868;DHT22;31582;45.490;7.860;2022-08-21T12:57:39;34.80;29.90
45868;DHT22;31582;45.490;7.860;2022-08-21T13:00:10;34.90;28.30
45868;DHT22;31582;45.490;7.860;2022-08-21T13:02:48;34.90;27.00
45868;DHT22;31582;45.490;7.860;2022-08-21T13:05:26;35.10;27.90
45868;DHT22;31582;45.490;7.860;2022-08-21T13:07:53;35.20;27.10
45868;DHT22;31582;45.490;7.860;2022-08-21T13:10:25;35.20;26.70
45868;DHT22;31582;45.490;7.860;2022-08-21T13:12:56;35.10;26.70
45868;DHT22;31582;45.490;7.860;2022-08-21T13:15:27;35.10;27.50
45868;DHT22;31582;45.490;7.860;2022-08-21T13:17:59;35.30;26.90
45868;DHT22;31582;45.490;7.860;2022-08-21T13:20:29;34.90;25.60
45868;DHT22;31582;45.490;7.860;2022-08-21T13:22:57;34.70;27.00
45868;DHT22;31582;45.490;7.860;2022-08-21T13:25:26;34.80;27.60
45868;DHT22;31582;45.490;7.860;2022-08-21T13:27:58;34.70;26.60
45868;DHT22;31582;45.490;7.860;2022-08-21T13:30:25;34.80;27.00
45868;DHT22;31582;45.490;7.860;2022-08-21T13:32:56;34.70;26.40
45868;DHT22;31582;45.490;7.860;2022-08-21T13:35:25;34.90;26.20
45868;DHT22;31582;45.490;7.860;2022-08-21T13:37:53;35.00;25.90
45868;DHT22;31582;45.490;7.860;2022-08-21T13:40:25;35.10;26.10
45868;DHT22;31582;45.490;7.860;2022-08-21T13:42:52;35.30;25.70
45868;DHT22;31582;45.490;7.860;2022-08-21T13:45:24;35.20;26.40
45868;DHT22;31582;45.490;7.860;2022-08-21T13:47:51;35.50;27.10
45868;DHT22;31582;45.490;7.860;2022-08-21T13:50:20;35.50;25.50
45868;DHT22;31582;45.490;7.860;2022-08-21T13:52:57;35.50;26.30
45868;DHT22;31582;45.490;7.860;2022-08-21T13:55:25;35.50;26.30
45868;DHT22;31582;45.490;7.860;2022-08-21T13:57:58;35.50;26.60
45868;DHT22;31582;45.490;7.860;2022-08-21T14:00:27;35.50;26.40
45868;DHT22;31582;45.490;7.860;2022-08-21T14:02:54;35.50;26.50
45868;DHT22;31582;45.490;7.860;2022-08-21T14:05:27;35.40;26.80
45868;DHT22;31582;45.490;7.860;2022-08-21T14:08:05;35.50;26.60
45868;DHT22;31582;45.490;7.860;2022-08-21T14:10:35;35.50;26.50
45868;DHT22;31582;45.490;7.860;2022-08-21T14:13:04;35.60;25.60
45868;DHT22;31582;45.490;7.860;2022-08-21T14:15:33;35.30;25.50
45868;DHT22;31582;45.490;7.860;2022-08-21T14:18:17;35.30;26.20
45868;DHT22;31582;45.490;7.860;2022-08-21T14:20:44;35.40;26.60
45868;DHT22;31582;45.490;7.860;2022-08-21T14:23:11;35.70;27.30
45868;DHT22;31582;45.490;7.860;2022-08-21T14:25:41;35.80;25.20
45868;DHT22;31582;45.490;7.860;2022-08-21T14:30:54;35.80;25.90
45868;DHT22;31582;45.490;7.860;2022-08-21T14:33:26;35.90;25.90
45868;DHT22;31582;45.490;7.860;2022-08-21T14:35:53;36.00;25.40
45868;DHT22;31582;45.490;7.860;2022-08-21T14:38:21;36.10;25.20
45868;DHT22;31582;45.490;7.860;2022-08-21T14:40:50;36.20;24.70
45868;DHT22;31582;45.490;7.860;2022-08-21T14:43:18;36.20;23.70
45868;DHT22;31582;45.490;7.860;2022-08-21T14:45:45;36.20;24.40
45868;DHT22;31582;45.490;7.860;2022-08-21T14:48:13;36.10;24.10
45868;DHT22;31582;45.490;7.860;2022-08-21T14:50:39;36.10;24.80
45868;DHT22;31582;45.490;7.860;2022-08-21T14:53:07;36.20;24.50
45868;DHT22;31582;45.490;7.860;2022-08-21T14:55:37;36.20;24.40
45868;DHT22;31582;45.490;7.860;2022-08-21T14:58:23;36.10;24.50
45868;DHT22;31582;45.490;7.860;2022-08-21T15:00:51;35.60;23.90
45868;DHT22;31582;45.490;7.860;2022-08-21T15:03:19;35.30;23.90
45868;DHT22;31582;45.490;7.860;2022-08-21T15:05:45;35.10;23.70
45868;DHT22;31582;45.490;7.860;2022-08-21T15:08:12;35.20;24.70
45868;DHT22;31582;45.490;7.860;2022-08-21T15:10:39;35.30;24.30
45868;DHT22;31582;45.490;7.860;2022-08-21T15:13:26;35.40;24.60
45868;DHT22;31582;45.490;7.860;2022-08-21T15:15:53;35.40;23.90
45868;DHT22;31582;45.490;7.860;2022-08-21T15:18:20;35.70;24.30
45868;DHT22;31582;45.490;7.860;2022-08-21T15:20:47;35.80;24.60
45868;DHT22;31582;45.490;7.860;2022-08-21T15:23:14;35.80;24.80
45868;DHT22;31582;45.490;7.860;2022-08-21T15:25:42;35.90;24.30
45868;DHT22;31582;45.490;7.860;2022-08-21T15:28:09;35.90;24.00
45868;DHT22;31582;45.490;7.860;2022-08-21T15:30:37;36.00;23.60
45868;DHT22;31582;45.490;7.860;2022-08-21T15:33:04;36.00;23.60
45868;DHT22;31582;45.490;7.860;2022-08-21T15:35:32;35.90;23.70
45868;DHT22;31582;45.490;7.860;2022-08-21T15:37:59;35.80;23.80
45868;DHT22;31582;45.490;7.860;2022-08-21T15:40:26;35.80;24.60
45868;DHT22;31582;45.490;7.860;2022-08-21T15:43:01;35.80;23.70
45868;DHT22;31582;45.490;7.860;2022-08-21T15:45:28;35.80;24.00
45868;DHT22;31582;45.490;7.860;2022-08-21T15:47:56;35.90;23.40
45868;DHT22;31582;45.490;7.860;2022-08-21T15:50:23;35.70;23.00
45868;DHT22;31582;45.490;7.860;2022-08-21T15:52:50;35.60;23.10
45868;DHT22;31582;45.490;7.860;2022-08-21T15:55:17;35.50;23.00
45868;DHT22;31582;45.490;7.860;2022-08-21T15:57:45;35.30;23.40
45868;DHT22;31582;45.490;7.860;2022-08-21T16:00:23;35.10;23.80
45868;DHT22;31582;45.490;7.860;2022-08-21T16:02:55;35.10;24.40
45868;DHT22;31582;45.490;7.860;2022-08-21T16:05:22;35.30;24.30
45868;DHT22;31582;45.490;7.860;2022-08-21T16:07:50;35.50;23.90
45868;DHT22;31582;45.490;7.860;2022-08-21T16:10:22;35.40;24.00
45868;DHT22;31582;45.490;7.860;2022-08-21T16:12:57;35.30;23.00
45868;DHT22;31582;45.490;7.860;2022-08-21T16:15:25;35.30;23.40
45868;DHT22;31582;45.490;7.860;2022-08-21T16:17:53;35.20;22.80
45868;DHT22;31582;45.490;7.860;2022-08-21T16:20:26;35.10;22.20
45868;DHT22;31582;45.490;7.860;2022-08-21T16:22:55;35.10;23.20
45868;DHT22;31582;45.490;7.860;2022-08-21T16:25:23;35.20;23.50
45868;DHT22;31582;45.490;7.860;2022-08-21T16:27:54;35.40;23.40
45868;DHT22;31582;45.490;7.860;2022-08-21T16:30:25;35.40;23.00
45868;DHT22;31582;45.490;7.860;2022-08-21T16:32:54;35.40;22.80
45868;DHT22;31582;45.490;7.860;2022-08-21T16:35:22;35.50;22.50
45868;DHT22;31582;45.490;7.860;2022-08-21T16:37:50;35.60;22.50
45868;DHT22;31582;45.490;7.860;2022-08-21T16:40:20;35.80;22.60
45868;DHT22;31582;45.490;7.860;2022-08-21T16:42:49;35.80;23.00
45868;DHT22;31582;45.490;7.860;2022-08-21T16:45:18;35.80;23.00
45868;DHT22;31582;45.490;7.860;2022-08-21T16:47:47;35.80;23.20
45868;DHT22;31582;45.490;7.860;2022-08-21T16:50:16;35.80;23.40
45868;DHT22;31582;45.490;7.860;2022-08-21T16:52:45;35.70;23.70
45868;DHT22;31582;45.490;7.860;2022-08-21T16:55:11;35.40;25.70
45868;DHT22;31582;45.490;7.860;2022-08-21T16:57:38;34.90;26.80
45868;DHT22;31582;45.490;7.860;2022-08-21T17:00:07;34.70;28.10
45868;DHT22;31582;45.490;7.860;2022-08-21T17:02:41;34.50;28.90
45868;DHT22;31582;45.490;7.860;2022-08-21T17:05:09;34.10;28.60
45868;DHT22;31582;45.490;7.860;2022-08-21T17:07:41;33.60;29.20
45868;DHT22;31582;45.490;7.860;2022-08-21T17:10:10;33.20;30.00